Time;durP1;ratioP1;P1;durP2;ratioP2;P2;SDS_P1;SDS_P2;PMS_P1;PMS_P2;Temp;Humidity;BMP_temperature;BMP_pressure;BME280_temperature;BME280_humidity;BME280_pressure;Samples;Min_cycle;Max_cycle;Signal;HPM_P1;HPM_P2
2022/11/27 00:01:16;;;;;;;;;;;18.70;71.10;;;;;;4445680;32;19966;-79
2022/11/27 00:03:42;;;;;;;;;;;18.70;71.10;;;;;;4445829;32;20541;-79
2022/11/27 00:06:11;;;;;;;;;;;18.70;71.00;;;;;;4445679;32;20088;-80
2022/11/27 00:08:36;;;;;;;;;;;18.70;71.10;;;;;;4445291;32;19975;-80
2022/11/27 00:11:09;;;;;;;;;;;18.70;71.00;;;;;;4444747;32;19982;-79
2022/11/27 00:13:35;;;;;;;;;;;18.70;71.10;;;;;;4445488;32;20069;-79
2022/11/27 00:16:01;;;;;;;;;;;18.70;71.00;;;;;;4445247;32;19985;-79
2022/11/27 00:18:26;;;;;;;;;;;18.60;70.90;;;;;;4445500;32;20036;-79
2022/11/27 00:20:52;;;;;;;;;;;18.60;70.90;;;;;;4447019;32;20048;-80
2022/11/27 00:23:18;;;;;;;;;;;18.60;70.80;;;;;;4448678;32;20285;-79
2022/11/27 00:25:51;;;;;;;;;;;18.60;70.80;;;;;;4448741;32;20002;-79
2022/11/27 00:28:17;;;;;;;;;;;18.60;70.80;;;;;;4448309;32;19979;-79
2022/11/27 00:30:42;;;;;;;;;;;18.60;70.80;;;;;;4448685;32;19963;-80
2022/11/27 00:33:08;;;;;;;;;;;18.60;70.80;;;;;;4448258;32;20450;-79
2022/11/27 00:35:35;;;;;;;;;;;18.60;70.80;;;;;;4448205;32;19982;-81
2022/11/27 00:38:00;;;;;;;;;;;18.60;70.80;;;;;;4434626;32;19962;-79
2022/11/27 00:40:26;;;;;;;;;;;18.60;70.70;;;;;;4434622;32;20059;-79
2022/11/27 00:42:51;;;;;;;;;;;18.50;70.70;;;;;;4448274;32;19963;-79
2022/11/27 00:45:17;;;;;;;;;;;18.50;70.70;;;;;;4448572;32;19971;-79
2022/11/27 00:47:43;;;;;;;;;;;18.50;70.60;;;;;;4448420;32;20084;-79
2022/11/27 00:50:08;;;;;;;;;;;18.50;70.70;;;;;;4448255;32;19985;-78
2022/11/27 00:52:34;;;;;;;;;;;18.50;70.70;;;;;;4448019;32;19985;-79
2022/11/27 00:55:00;;;;;;;;;;;18.50;70.60;;;;;;4448588;32;20108;-79
2022/11/27 00:57:25;;;;;;;;;;;18.50;70.50;;;;;;4448338;32;19971;-78
2022/11/27 00:59:51;;;;;;;;;;;18.40;70.50;;;;;;4448297;32;19962;-79
2022/11/27 01:02:17;;;;;;;;;;;18.40;70.50;;;;;;4448147;32;19975;-80
2022/11/27 01:04:46;;;;;;;;;;;18.40;70.50;;;;;;4447920;32;20396;-79
2022/11/27 01:07:12;;;;;;;;;;;18.40;70.50;;;;;;4448128;32;19971;-79
2022/11/27 01:09:38;;;;;;;;;;;18.40;70.50;;;;;;4448429;32;20407;-79
2022/11/27 01:12:04;;;;;;;;;;;18.40;70.40;;;;;;4448324;32;20015;-78
2022/11/27 01:14:29;;;;;;;;;;;18.40;70.30;;;;;;4448545;32;19977;-78
2022/11/27 01:16:55;;;;;;;;;;;18.40;70.50;;;;;;4448345;32;19981;-79
2022/11/27 01:19:21;;;;;;;;;;;18.40;70.40;;;;;;4448715;32;19974;-79
2022/11/27 01:21:46;;;;;;;;;;;18.30;70.30;;;;;;4448760;32;19981;-79
2022/11/27 01:24:13;;;;;;;;;;;18.40;70.30;;;;;;4448165;32;19983;-78
2022/11/27 01:26:39;;;;;;;;;;;18.30;70.30;;;;;;4448219;32;19971;-80
2022/11/27 01:29:05;;;;;;;;;;;18.30;70.30;;;;;;4448513;32;20045;-79
2022/11/27 01:31:31;;;;;;;;;;;18.30;70.20;;;;;;4448250;32;19982;-79
2022/11/27 01:33:59;;;;;;;;;;;18.30;70.20;;;;;;4448824;32;19987;-79
2022/11/27 01:36:26;;;;;;;;;;;18.30;70.20;;;;;;4448300;32;20005;-79
2022/11/27 01:38:52;;;;;;;;;;;18.30;70.20;;;;;;4447739;32;20526;-79
2022/11/27 01:41:17;;;;;;;;;;;18.30;70.20;;;;;;4447805;32;20049;-79
2022/11/27 01:43:47;;;;;;;;;;;18.30;70.20;;;;;;4448222;32;20007;-80
2022/11/27 01:46:16;;;;;;;;;;;18.20;70.00;;;;;;4448439;32;19982;-79
2022/11/27 01:48:41;;;;;;;;;;;18.20;70.00;;;;;;4448020;32;19978;-79
2022/11/27 01:51:07;;;;;;;;;;;18.20;70.00;;;;;;4447375;32;20351;-80
2022/11/27 01:53:33;;;;;;;;;;;18.20;70.00;;;;;;4447920;32;20008;-80
2022/11/27 01:56:00;;;;;;;;;;;18.20;70.00;;;;;;4448164;32;20024;-79
2022/11/27 01:58:27;;;;;;;;;;;18.20;70.00;;;;;;4447726;32;20029;-80
2022/11/27 02:00:53;;;;;;;;;;;18.20;70.00;;;;;;4448427;32;19986;-79
2022/11/27 02:03:19;;;;;;;;;;;18.20;70.10;;;;;;4447270;32;19962;-79
2022/11/27 02:05:44;;;;;;;;;;;18.20;70.00;;;;;;4447272;32;19982;-80
2022/11/27 02:08:11;;;;;;;;;;;18.20;70.00;;;;;;4447164;32;19983;-79
2022/11/27 02:10:37;;;;;;;;;;;18.20;69.90;;;;;;4447458;32;19982;-80
2022/11/27 02:13:06;;;;;;;;;;;18.20;69.90;;;;;;4447052;32;20033;-80
2022/11/27 02:15:44;;;;;;;;;;;18.20;69.80;;;;;;4446013;32;19986;-80
2022/11/27 02:18:30;;;;;;;;;;;18.20;70.70;;;;;;4446861;32;20036;-80
2022/11/27 02:20:56;;;;;;;;;;;18.20;69.80;;;;;;4447543;32;20025;-81
2022/11/27 02:23:24;;;;;;;;;;;18.10;69.80;;;;;;4447128;32;20048;-82
2022/11/27 02:25:59;;;;;;;;;;;18.10;69.80;;;;;;4446863;32;19991;-81
2022/11/27 02:28:31;;;;;;;;;;;18.10;69.80;;;;;;4446454;32;20048;-80
2022/11/27 02:31:02;;;;;;;;;;;18.10;69.70;;;;;;4446392;32;19978;-80
2022/11/27 02:33:29;;;;;;;;;;;18.10;69.70;;;;;;4446782;32;20475;-80
2022/11/27 02:35:57;;;;;;;;;;;18.10;69.70;;;;;;4446391;32;20020;-81
2022/11/27 02:38:29;;;;;;;;;;;18.10;70.60;;;;;;4446629;32;20057;-80
2022/11/27 02:40:57;;;;;;;;;;;18.10;69.70;;;;;;4446565;32;20323;-80
2022/11/27 02:43:29;;;;;;;;;;;18.10;69.60;;;;;;4445930;32;19990;-80
2022/11/27 02:45:57;;;;;;;;;;;18.10;69.60;;;;;;4446541;32;19975;-80
2022/11/27 02:48:25;;;;;;;;;;;18.10;69.60;;;;;;4432485;32;20028;-80
2022/11/27 02:50:52;;;;;;;;;;;18.00;69.50;;;;;;4446640;32;19990;-80
2022/11/27 02:53:22;;;;;;;;;;;18.00;69.50;;;;;;4446592;32;20060;-80
2022/11/27 02:55:49;;;;;;;;;;;18.00;69.50;;;;;;4446797;32;19984;-79
2022/11/27 02:58:16;;;;;;;;;;;18.00;69.40;;;;;;4446530;32;19978;-80
2022/11/27 03:00:42;;;;;;;;;;;18.00;69.40;;;;;;4446539;32;20411;-80
2022/11/27 03:03:11;;;;;;;;;;;18.00;69.40;;;;;;4446478;32;20021;-80
2022/11/27 03:05:38;;;;;;;;;;;18.00;69.40;;;;;;4446696;32;19982;-80
2022/11/27 03:08:05;;;;;;;;;;;18.00;69.40;;;;;;4446349;32;20169;-80
2022/11/27 03:10:35;;;;;;;;;;;18.00;69.30;;;;;;4446576;32;20164;-80
2022/11/27 03:13:01;;;;;;;;;;;18.00;70.10;;;;;;4446035;32;20172;-80
2022/11/27 03:15:31;;;;;;;;;;;18.00;69.20;;;;;;4446276;32;20129;-80
2022/11/27 03:18:05;;;;;;;;;;;18.00;69.20;;;;;;4446243;32;19990;-80
2022/11/27 03:20:39;;;;;;;;;;;18.00;69.20;;;;;;4446547;32;19997;-80
2022/11/27 03:23:05;;;;;;;;;;;17.90;69.10;;;;;;4446237;32;20529;-80
2022/11/27 03:25:30;;;;;;;;;;;17.90;69.10;;;;;;4446150;32;20101;-80
2022/11/27 03:28:04;;;;;;;;;;;17.90;69.10;;;;;;4446326;32;20316;-80
2022/11/27 03:30:30;;;;;;;;;;;17.90;69.10;;;;;;4446087;32;19983;-80
2022/11/27 03:32:56;;;;;;;;;;;17.90;69.10;;;;;;4432357;32;20045;-80
2022/11/27 03:35:23;;;;;;;;;;;17.90;69.00;;;;;;4446061;32;19978;-80
2022/11/27 03:37:50;;;;;;;;;;;17.90;69.00;;;;;;4446084;32;20395;-80
2022/11/27 03:40:17;;;;;;;;;;;17.90;69.10;;;;;;4445034;32;19983;-80
2022/11/27 03:42:54;;;;;;;;;;;17.90;69.00;;;;;;4446105;32;20316;-80
2022/11/27 03:45:23;;;;;;;;;;;17.90;69.00;;;;;;4446036;32;19982;-80
2022/11/27 03:47:54;;;;;;;;;;;17.90;69.00;;;;;;4445787;32;20060;-80
2022/11/27 03:50:20;;;;;;;;;;;17.90;69.00;;;;;;4445851;32;19989;-80
2022/11/27 03:52:55;;;;;;;;;;;17.80;68.90;;;;;;4446081;32;19974;-81
2022/11/27 03:55:44;;;;;;;;;;;17.80;68.80;;;;;;4445601;32;20009;-81
2022/11/27 03:58:25;;;;;;;;;;;17.80;68.90;;;;;;4439648;32;19987;-80
2022/11/27 04:00:51;;;;;;;;;;;17.80;68.80;;;;;;4445746;32;19974;-80
2022/11/27 04:03:22;;;;;;;;;;;17.80;68.80;;;;;;4445819;32;19979;-80
2022/11/27 04:05:47;;;;;;;;;;;17.80;68.90;;;;;;4446097;32;19987;-80
2022/11/27 04:08:13;;;;;;;;;;;17.80;68.90;;;;;;4431912;32;20013;-80
2022/11/27 04:10:39;;;;;;;;;;;17.80;68.80;;;;;;4445776;32;19979;-82
2022/11/27 04:13:04;;;;;;;;;;;17.80;68.80;;;;;;4445665;32;20136;-80
2022/11/27 04:15:30;;;;;;;;;;;17.80;68.80;;;;;;4445717;32;20092;-80
2022/11/27 04:17:56;;;;;;;;;;;17.80;68.80;;;;;;4445236;32;20104;-80
2022/11/27 04:20:21;;;;;;;;;;;17.80;68.80;;;;;;4445482;32;20312;-80
2022/11/27 04:22:47;;;;;;;;;;;17.80;68.80;;;;;;4445189;32;19967;-82
2022/11/27 04:25:13;;;;;;;;;;;17.80;68.70;;;;;;4445471;32;19982;-81
2022/11/27 04:27:38;;;;;;;;;;;17.70;68.60;;;;;;4431688;32;19967;-80
2022/11/27 04:30:04;;;;;;;;;;;17.70;68.70;;;;;;4445685;32;20420;-80
2022/11/27 04:32:30;;;;;;;;;;;17.80;68.70;;;;;;4445117;32;20155;-81
2022/11/27 04:34:55;;;;;;;;;;;17.70;68.80;;;;;;4445483;32;19971;-83
2022/11/27 04:37:21;;;;;;;;;;;17.70;68.80;;;;;;4445488;32;20016;-80
2022/11/27 04:39:47;;;;;;;;;;;17.70;68.80;;;;;;4445497;32;20372;-80
2022/11/27 04:42:13;;;;;;;;;;;17.70;68.80;;;;;;4445412;32;20389;-80
2022/11/27 04:44:39;;;;;;;;;;;17.70;68.70;;;;;;4445717;32;19958;-80
2022/11/27 04:47:05;;;;;;;;;;;17.70;68.70;;;;;;4445617;32;19982;-80
2022/11/27 04:49:30;;;;;;;;;;;17.70;68.70;;;;;;4444156;32;19970;-79
2022/11/27 04:51:56;;;;;;;;;;;17.70;68.60;;;;;;4430924;32;19981;-80
2022/11/27 04:54:22;;;;;;;;;;;17.70;68.60;;;;;;4445436;32;20013;-80
2022/11/27 04:56:47;;;;;;;;;;;17.70;68.60;;;;;;4446200;32;19975;-81
2022/11/27 04:59:13;;;;;;;;;;;17.70;68.60;;;;;;4445412;32;19978;-80
2022/11/27 05:01:39;;;;;;;;;;;17.70;68.60;;;;;;4445537;32;20385;-80
2022/11/27 05:04:05;;;;;;;;;;;17.70;69.50;;;;;;4445359;32;19973;-80
2022/11/27 05:06:30;;;;;;;;;;;17.60;68.60;;;;;;4445331;32;20109;-80
2022/11/27 05:09:00;;;;;;;;;;;17.60;68.60;;;;;;4447781;32;19974;-80
2022/11/27 05:11:27;;;;;;;;;;;17.60;68.60;;;;;;4448036;32;20431;-80
2022/11/27 05:14:13;;;;;;;;;;;17.60;68.60;;;;;;4447847;32;19982;-80
2022/11/27 05:16:38;;;;;;;;;;;17.60;68.50;;;;;;4447919;32;20384;-81
2022/11/27 05:19:04;;;;;;;;;;;17.60;68.60;;;;;;4433987;32;20014;-81
2022/11/27 05:21:30;;;;;;;;;;;17.60;68.60;;;;;;4447688;32;19974;-80
2022/11/27 05:23:55;;;;;;;;;;;17.60;68.60;;;;;;4447630;32;19980;-81
2022/11/27 05:26:21;;;;;;;;;;;17.60;68.60;;;;;;4447912;32;19967;-80
2022/11/27 05:28:47;;;;;;;;;;;17.60;68.60;;;;;;4447798;32;20097;-80
2022/11/27 05:31:12;;;;;;;;;;;17.50;68.50;;;;;;4434070;32;20097;-81
2022/11/27 05:33:38;;;;;;;;;;;17.60;68.50;;;;;;4447408;32;20105;-81
2022/11/27 05:36:04;;;;;;;;;;;17.50;68.40;;;;;;4447689;32;20149;-81
2022/11/27 05:38:29;;;;;;;;;;;17.60;68.50;;;;;;4447744;32;20383;-81
2022/11/27 05:40:56;;;;;;;;;;;17.50;68.40;;;;;;4447606;32;20100;-81
2022/11/27 05:43:22;;;;;;;;;;;17.50;68.40;;;;;;4447650;32;20358;-80
2022/11/27 05:45:48;;;;;;;;;;;17.50;68.40;;;;;;4447736;32;19975;-81
2022/11/27 05:48:13;;;;;;;;;;;17.50;68.40;;;;;;4433589;32;20300;-81
2022/11/27 05:50:39;;;;;;;;;;;17.50;68.40;;;;;;4433257;32;19959;-81
2022/11/27 05:53:05;;;;;;;;;;;17.50;68.40;;;;;;4445803;32;20166;-80
2022/11/27 05:55:31;;;;;;;;;;;17.50;68.30;;;;;;4433583;32;19966;-80
2022/11/27 05:58:02;;;;;;;;;;;17.50;68.30;;;;;;4447421;32;20032;-81
2022/11/27 06:00:28;;;;;;;;;;;17.50;68.30;;;;;;4433329;32;19980;-81
2022/11/27 06:02:55;;;;;;;;;;;17.50;68.30;;;;;;4447489;32;20554;-80
2022/11/27 06:05:21;;;;;;;;;;;17.40;68.20;;;;;;4447345;32;19970;-81
2022/11/27 06:07:46;;;;;;;;;;;17.40;68.20;;;;;;4447092;32;20399;-81
2022/11/27 06:10:12;;;;;;;;;;;17.40;68.20;;;;;;4447218;32;20047;-80
2022/11/27 06:12:38;;;;;;;;;;;17.40;68.20;;;;;;4446044;32;20120;-82
2022/11/27 06:15:03;;;;;;;;;;;17.40;68.10;;;;;;4447026;32;20097;-81
2022/11/27 06:17:29;;;;;;;;;;;17.40;68.10;;;;;;4446550;32;20028;-80
2022/11/27 06:19:55;;;;;;;;;;;17.40;68.10;;;;;;4446951;32;20033;-82
2022/11/27 06:22:21;;;;;;;;;;;17.40;68.10;;;;;;4446943;32;19970;-82
2022/11/27 06:24:47;;;;;;;;;;;17.40;68.20;;;;;;4446981;32;19963;-82
2022/11/27 06:27:12;;;;;;;;;;;17.40;68.10;;;;;;4446829;32;19974;-81
2022/11/27 06:29:38;;;;;;;;;;;17.40;68.20;;;;;;4446517;32;19963;-82
2022/11/27 06:32:04;;;;;;;;;;;17.40;68.20;;;;;;4446860;32;20358;-81
2022/11/27 06:34:41;;;;;;;;;;;17.40;68.20;;;;;;4447089;32;20415;-82
2022/11/27 06:37:07;;;;;;;;;;;17.40;68.20;;;;;;4432816;32;19967;-81
2022/11/27 06:39:32;;;;;;;;;;;17.30;68.20;;;;;;4446725;32;20037;-81
2022/11/27 06:41:58;;;;;;;;;;;17.30;68.00;;;;;;4446589;32;20104;-82
2022/11/27 06:44:25;;;;;;;;;;;17.30;68.10;;;;;;4446629;32;20018;-81
2022/11/27 06:46:51;;;;;;;;;;;17.30;68.10;;;;;;4446571;32;20002;-81
2022/11/27 06:49:19;;;;;;;;;;;17.30;68.10;;;;;;4432885;32;19990;-81
2022/11/27 06:51:45;;;;;;;;;;;17.30;68.10;;;;;;4445941;32;20096;-82
2022/11/27 06:54:11;;;;;;;;;;;17.30;68.10;;;;;;4431081;32;19970;-81
2022/11/27 06:56:36;;;;;;;;;;;17.30;68.20;;;;;;4446841;32;20361;-81
2022/11/27 06:59:02;;;;;;;;;;;17.30;68.10;;;;;;4445284;32;20022;-82
2022/11/27 07:01:29;;;;;;;;;;;17.30;68.10;;;;;;4446540;32;19981;-81
2022/11/27 07:03:55;;;;;;;;;;;17.20;68.10;;;;;;4446370;32;20014;-81
2022/11/27 07:06:21;;;;;;;;;;;17.20;68.10;;;;;;4446575;32;19992;-81
2022/11/27 07:08:47;;;;;;;;;;;17.20;68.10;;;;;;4446620;32;20105;-84
2022/11/27 07:11:14;;;;;;;;;;;17.20;68.20;;;;;;4446350;32;20390;-80
2022/11/27 07:13:40;;;;;;;;;;;17.20;68.20;;;;;;4446335;32;20052;-81
2022/11/27 07:16:07;;;;;;;;;;;17.20;68.20;;;;;;4446392;32;19982;-82
2022/11/27 07:18:36;;;;;;;;;;;17.20;68.20;;;;;;4446071;32;19983;-81
2022/11/27 07:21:02;;;;;;;;;;;17.30;68.30;;;;;;4446299;32;20026;-80
2022/11/27 07:23:28;;;;;;;;;;;17.30;68.20;;;;;;4432321;32;20108;-81
2022/11/27 07:25:53;;;;;;;;;;;17.30;68.20;;;;;;4445996;32;20080;-81
2022/11/27 07:28:19;;;;;;;;;;;17.30;68.10;;;;;;4446438;32;20304;-80
2022/11/27 07:30:52;;;;;;;;;;;17.30;67.90;;;;;;4445725;32;20018;-82
2022/11/27 07:33:18;;;;;;;;;;;17.30;67.90;;;;;;4446319;32;20510;-81
2022/11/27 07:35:43;;;;;;;;;;;17.40;67.90;;;;;;4446179;32;19982;-82
2022/11/27 07:38:09;;;;;;;;;;;17.40;68.00;;;;;;4445791;32;20335;-80
2022/11/27 07:40:36;;;;;;;;;;;17.40;67.90;;;;;;4446386;32;20014;-80
2022/11/27 07:43:02;;;;;;;;;;;17.40;67.70;;;;;;4446174;32;19993;-80
2022/11/27 07:45:28;;;;;;;;;;;17.40;67.60;;;;;;4446164;32;19974;-80
2022/11/27 07:47:54;;;;;;;;;;;17.40;67.60;;;;;;4431963;32;20014;-84
2022/11/27 07:50:20;;;;;;;;;;;17.40;67.60;;;;;;4446150;32;20014;-81
2022/11/27 07:52:46;;;;;;;;;;;17.50;67.60;;;;;;4446069;32;19963;-81
2022/11/27 07:55:12;;;;;;;;;;;17.50;67.50;;;;;;4445654;32;19974;-81
2022/11/27 07:57:38;;;;;;;;;;;17.50;67.90;;;;;;4445843;32;19966;-80
2022/11/27 08:00:04;;;;;;;;;;;17.50;68.40;;;;;;4446114;32;20092;-81
2022/11/27 08:02:30;;;;;;;;;;;17.50;68.90;;;;;;4445992;32;19987;-81
2022/11/27 08:04:55;;;;;;;;;;;17.50;69.50;;;;;;4445791;32;20072;-80
2022/11/27 08:07:25;;;;;;;;;;;17.60;69.10;;;;;;4446000;32;19967;-79
2022/11/27 08:09:51;;;;;;;;;;;17.60;68.80;;;;;;4445769;32;19986;-81
2022/11/27 08:12:16;;;;;;;;;;;17.70;68.40;;;;;;4445392;32;19974;-80
2022/11/27 08:14:42;;;;;;;;;;;17.80;68.00;;;;;;4444643;32;19981;-81
2022/11/27 08:17:11;;;;;;;;;;;18.00;67.80;;;;;;4445335;32;19966;-81
2022/11/27 08:19:36;;;;;;;;;;;18.10;67.40;;;;;;4445476;32;20092;-80
2022/11/27 08:22:02;;;;;;;;;;;18.30;67.10;;;;;;4445891;32;19963;-80
2022/11/27 08:24:28;;;;;;;;;;;18.40;66.70;;;;;;4431794;32;19963;-81
2022/11/27 08:26:53;;;;;;;;;;;18.50;66.30;;;;;;4445597;32;19978;-80
2022/11/27 08:29:19;;;;;;;;;;;18.70;66.00;;;;;;4445829;32;19958;-80
2022/11/27 08:31:45;;;;;;;;;;;18.80;65.80;;;;;;4445553;32;20017;-81
2022/11/27 08:34:11;;;;;;;;;;;18.90;65.60;;;;;;4445645;32;19982;-80
2022/11/27 08:36:36;;;;;;;;;;;18.90;65.50;;;;;;4445818;32;20351;-80
2022/11/27 08:39:02;;;;;;;;;;;19.00;65.40;;;;;;4445725;32;20278;-79
2022/11/27 08:41:27;;;;;;;;;;;19.00;65.50;;;;;;4446819;32;19980;-80
2022/11/27 08:43:53;;;;;;;;;;;19.00;65.30;;;;;;4448489;32;20049;-79
2022/11/27 08:46:20;;;;;;;;;;;19.00;65.30;;;;;;4448887;32;19986;-79
2022/11/27 08:48:45;;;;;;;;;;;19.00;65.40;;;;;;4448652;32;19978;-80
2022/11/27 08:51:12;;;;;;;;;;;19.10;65.50;;;;;;4448622;32;19981;-79
2022/11/27 08:53:38;;;;;;;;;;;19.10;65.50;;;;;;4448107;32;20088;-81
2022/11/27 08:56:05;;;;;;;;;;;19.10;65.50;;;;;;4448080;32;19985;-83
2022/11/27 08:58:31;;;;;;;;;;;19.10;65.60;;;;;;4448296;32;20052;-79
2022/11/27 09:00:56;;;;;;;;;;;19.10;65.60;;;;;;4434389;32;19962;-81
2022/11/27 09:03:22;;;;;;;;;;;19.10;65.70;;;;;;4448201;32;19980;-79
2022/11/27 09:05:47;;;;;;;;;;;19.10;65.70;;;;;;4448112;32;20410;-79
2022/11/27 09:08:19;;;;;;;;;;;19.10;65.70;;;;;;4448156;32;20415;-80
2022/11/27 09:10:44;;;;;;;;;;;19.10;65.70;;;;;;4448444;32;20471;-80
2022/11/27 09:13:10;;;;;;;;;;;19.20;65.80;;;;;;4447989;32;20052;-80
2022/11/27 09:15:36;;;;;;;;;;;19.20;65.80;;;;;;4447977;32;19982;-79
2022/11/27 09:18:02;;;;;;;;;;;19.20;65.90;;;;;;4447598;32;19967;-79
2022/11/27 09:20:27;;;;;;;;;;;19.20;65.90;;;;;;4448291;32;20331;-79
2022/11/27 09:22:53;;;;;;;;;;;19.20;65.90;;;;;;4447962;32;19970;-79
2022/11/27 09:25:19;;;;;;;;;;;19.10;66.00;;;;;;4447933;32;19977;-82
2022/11/27 09:27:44;;;;;;;;;;;19.20;66.00;;;;;;4448172;32;20133;-82
2022/11/27 09:30:10;;;;;;;;;;;19.20;66.10;;;;;;4447823;32;20498;-79
2022/11/27 09:32:36;;;;;;;;;;;19.20;66.10;;;;;;4447651;32;19959;-82
2022/11/27 09:35:02;;;;;;;;;;;19.20;66.30;;;;;;4447582;32;20437;-82
2022/11/27 09:37:28;;;;;;;;;;;19.20;66.30;;;;;;4447713;32;20025;-80
2022/11/27 09:39:54;;;;;;;;;;;19.20;66.40;;;;;;4447916;32;20412;-80
2022/11/27 09:42:30;;;;;;;;;;;19.10;66.30;;;;;;4447827;32;19984;-80
2022/11/27 09:44:57;;;;;;;;;;;19.10;66.30;;;;;;4448030;32;20013;-81
2022/11/27 09:47:32;;;;;;;;;;;19.10;66.30;;;;;;4433728;32;19986;-82
2022/11/27 09:50:00;;;;;;;;;;;19.10;66.30;;;;;;4447468;32;19981;-80
2022/11/27 09:52:42;;;;;;;;;;;19.10;66.40;;;;;;4447246;32;20018;-82
2022/11/27 09:55:19;;;;;;;;;;;19.10;66.30;;;;;;4447162;32;20112;-77
2022/11/27 09:57:49;;;;;;;;;;;19.10;66.40;;;;;;4447422;32;20096;-79
2022/11/27 10:00:19;;;;;;;;;;;19.10;66.40;;;;;;4447120;32;19982;-83
2022/11/27 10:02:45;;;;;;;;;;;19.10;66.40;;;;;;4447609;32;20286;-78
2022/11/27 10:05:17;;;;;;;;;;;19.10;66.40;;;;;;4446983;32;19997;-76
2022/11/27 10:08:01;;;;;;;;;;;19.10;66.40;;;;;;4447585;32;19981;-79
2022/11/27 10:10:33;;;;;;;;;;;19.10;66.40;;;;;;4447122;32;19979;-79
2022/11/27 10:13:17;;;;;;;;;;;19.10;66.30;;;;;;4446832;32;20093;-79
2022/11/27 10:15:46;;;;;;;;;;;19.10;66.30;;;;;;4447009;32;20029;-75
2022/11/27 10:18:26;;;;;;;;;;;19.10;66.20;;;;;;4447043;32;20442;-79
2022/11/27 10:20:54;;;;;;;;;;;19.10;66.30;;;;;;4447042;32;19986;-81
2022/11/27 10:23:40;;;;;;;;;;;19.20;66.30;;;;;;4447087;32;20010;-80
2022/11/27 10:26:28;;;;;;;;;;;19.10;66.20;;;;;;4447408;32;20396;-77
2022/11/27 10:28:56;;;;;;;;;;;19.20;66.20;;;;;;4447114;32;19983;-82
2022/11/27 10:31:28;;;;;;;;;;;19.20;66.20;;;;;;4446932;32;20461;-85
2022/11/27 10:33:56;;;;;;;;;;;19.20;66.20;;;;;;4446885;32;19993;-81
2022/11/27 10:36:25;;;;;;;;;;;19.20;66.20;;;;;;4446870;32;20122;-81
2022/11/27 10:38:52;;;;;;;;;;;19.20;66.10;;;;;;4446736;32;20087;-68
2022/11/27 10:41:29;;;;;;;;;;;19.20;66.30;;;;;;4446462;32;19985;-79
2022/11/27 10:43:56;;;;;;;;;;;19.10;66.20;;;;;;4446860;32;19971;-79
2022/11/27 10:46:35;;;;;;;;;;;19.10;66.30;;;;;;4432683;32;20041;-80
2022/11/27 10:49:02;;;;;;;;;;;19.10;66.40;;;;;;4446965;32;19982;-80
2022/11/27 10:51:29;;;;;;;;;;;19.00;66.40;;;;;;4446822;32;19993;-80
2022/11/27 10:53:56;;;;;;;;;;;19.00;66.50;;;;;;4446189;32;20024;-80
2022/11/27 10:56:40;;;;;;;;;;;18.90;66.60;;;;;;4446578;32;20040;-80
2022/11/27 10:59:09;;;;;;;;;;;18.90;66.70;;;;;;4446588;32;20001;-80
2022/11/27 11:01:43;;;;;;;;;;;18.90;66.70;;;;;;4446480;32;20015;-80
2022/11/27 11:04:10;;;;;;;;;;;18.90;67.70;;;;;;4446123;32;19997;-80
2022/11/27 11:06:41;;;;;;;;;;;18.80;66.80;;;;;;4445885;32;20002;-80
2022/11/27 11:09:15;;;;;;;;;;;18.80;66.90;;;;;;4446379;32;20474;-81
2022/11/27 11:11:41;;;;;;;;;;;18.80;66.90;;;;;;4446311;32;19978;-80
2022/11/27 11:14:14;;;;;;;;;;;18.70;66.90;;;;;;4446322;32;20289;-80
2022/11/27 11:16:41;;;;;;;;;;;18.70;67.00;;;;;;4446500;32;19982;-80
2022/11/27 11:19:20;;;;;;;;;;;18.70;67.10;;;;;;4446284;32;20051;-80
2022/11/27 11:21:45;;;;;;;;;;;18.70;67.00;;;;;;4446075;32;20062;-80
2022/11/27 11:24:13;;;;;;;;;;;18.70;67.10;;;;;;4446241;32;19985;-80
2022/11/27 11:26:43;;;;;;;;;;;18.70;67.10;;;;;;4445131;32;20316;-79
2022/11/27 11:29:24;;;;;;;;;;;18.70;67.10;;;;;;4445873;32;19971;-80
2022/11/27 11:31:50;;;;;;;;;;;18.60;67.00;;;;;;4446073;32;20005;-80
2022/11/27 11:34:24;;;;;;;;;;;18.60;67.00;;;;;;4445905;32;20347;-80
2022/11/27 11:36:56;;;;;;;;;;;18.60;67.00;;;;;;4445775;32;19975;-80
2022/11/27 11:39:24;;;;;;;;;;;18.60;67.00;;;;;;4445772;32;20116;-80
2022/11/27 11:41:49;;;;;;;;;;;18.60;67.10;;;;;;4446052;32;20056;-80
2022/11/27 11:44:20;;;;;;;;;;;18.60;67.20;;;;;;4446028;32;20132;-79
2022/11/27 11:46:50;;;;;;;;;;;18.60;67.20;;;;;;4445948;32;19986;-79
2022/11/27 11:49:22;;;;;;;;;;;18.60;67.20;;;;;;4445931;32;19986;-80
2022/11/27 11:52:19;;;;;;;;;;;18.60;67.20;;;;;;4446295;32;19970;-80
2022/11/27 11:54:51;;;;;;;;;;;18.60;67.20;;;;;;4445591;32;20014;-80
2022/11/27 11:57:36;;;;;;;;;;;18.60;67.20;;;;;;4445597;32;19985;-80
2022/11/27 12:00:08;;;;;;;;;;;18.60;67.10;;;;;;4446222;32;19971;-80
2022/11/27 12:02:37;;;;;;;;;;;18.60;67.20;;;;;;4445905;32;19989;-80
2022/11/27 12:05:09;;;;;;;;;;;18.60;67.10;;;;;;4445897;32;20380;-81
2022/11/27 12:07:58;;;;;;;;;;;18.50;67.10;;;;;;4445484;32;20018;-80
2022/11/27 12:10:30;;;;;;;;;;;18.60;67.10;;;;;;4445189;32;20033;-80
2022/11/27 12:13:01;;;;;;;;;;;18.50;67.00;;;;;;4444358;32;20156;-80
2022/11/27 12:15:40;;;;;;;;;;;18.60;67.20;;;;;;4445428;32;19987;-80
2022/11/27 12:18:12;;;;;;;;;;;18.50;67.10;;;;;;4449113;32;20392;-79
2022/11/27 12:20:56;;;;;;;;;;;18.50;67.10;;;;;;4434950;32;20105;-79
2022/11/27 12:23:30;;;;;;;;;;;18.60;67.20;;;;;;4448895;32;19993;-79
2022/11/27 12:26:09;;;;;;;;;;;18.50;67.10;;;;;;4448832;32;20018;-79
2022/11/27 12:29:14;;;;;;;;;;;18.50;67.00;;;;;;4435030;32;20210;-79
2022/11/27 12:31:50;;;;;;;;;;;18.50;67.00;;;;;;4400778;32;20409;-79
2022/11/27 12:34:16;;;;;;;;;;;18.50;67.00;;;;;;4401016;32;20417;-79
2022/11/27 12:37:00;;;;;;;;;;;18.50;67.00;;;;;;4426510;32;19986;-79
2022/11/27 12:39:37;;;;;;;;;;;18.50;67.00;;;;;;4448608;32;20040;-80
2022/11/27 12:42:08;;;;;;;;;;;18.50;67.00;;;;;;4448951;32;19990;-79
2022/11/27 12:44:46;;;;;;;;;;;18.50;67.10;;;;;;4448502;32;20419;-79
2022/11/27 12:47:24;;;;;;;;;;;18.50;67.00;;;;;;4448404;32;20458;-79
2022/11/27 12:49:54;;;;;;;;;;;18.50;67.00;;;;;;4448508;32;19978;-79
2022/11/27 12:52:37;;;;;;;;;;;18.50;67.00;;;;;;4448337;32;20331;-80
2022/11/27 12:55:05;;;;;;;;;;;18.50;67.00;;;;;;4448514;32;20063;-79
2022/11/27 12:57:46;;;;;;;;;;;18.40;66.90;;;;;;4448348;32;19986;-79
2022/11/27 13:00:14;;;;;;;;;;;18.40;67.00;;;;;;4448681;32;19983;-80
2022/11/27 13:02:42;;;;;;;;;;;18.40;67.00;;;;;;4448230;32;19986;-80
2022/11/27 13:05:16;;;;;;;;;;;18.40;67.00;;;;;;4448331;32;20277;-80
2022/11/27 13:08:00;;;;;;;;;;;18.40;67.00;;;;;;4448182;32;20005;-79
2022/11/27 13:10:30;;;;;;;;;;;18.40;67.10;;;;;;4448140;32;20061;-80
2022/11/27 13:13:03;;;;;;;;;;;18.40;67.00;;;;;;4447838;32;20014;-78
2022/11/27 13:15:37;;;;;;;;;;;18.40;67.00;;;;;;4447141;32;19987;-79
2022/11/27 13:18:09;;;;;;;;;;;18.40;67.10;;;;;;4447787;32;19985;-79
2022/11/27 13:20:37;;;;;;;;;;;18.40;67.00;;;;;;4447868;32;19999;-80
2022/11/27 13:23:02;;;;;;;;;;;18.40;67.10;;;;;;4447936;32;19985;-79
2022/11/27 13:25:30;;;;;;;;;;;18.40;67.10;;;;;;4447975;32;19971;-79
2022/11/27 13:27:56;;;;;;;;;;;18.40;67.10;;;;;;4447173;32;20033;-80
2022/11/27 13:30:24;;;;;;;;;;;18.40;67.90;;;;;;4447630;32;19988;-79
2022/11/27 13:32:55;;;;;;;;;;;18.40;67.10;;;;;;4447705;32;20052;-81
2022/11/27 13:35:35;;;;;;;;;;;18.40;67.00;;;;;;4447792;32;20101;-79
2022/11/27 13:38:10;;;;;;;;;;;18.40;67.10;;;;;;4447830;32;19993;-80
2022/11/27 13:40:56;;;;;;;;;;;18.40;67.00;;;;;;4447735;32;20002;-79
2022/11/27 13:43:27;;;;;;;;;;;18.40;67.00;;;;;;4447584;32;19970;-80
2022/11/27 13:46:01;;;;;;;;;;;18.40;67.00;;;;;;4448177;32;19967;-80
2022/11/27 13:48:31;;;;;;;;;;;18.40;67.10;;;;;;4447761;32;20034;-80
2022/11/27 13:50:58;;;;;;;;;;;18.40;67.00;;;;;;4446510;32;19989;-80
2022/11/27 13:53:50;;;;;;;;;;;18.40;67.10;;;;;;4433084;32;19989;-80
2022/11/27 13:56:26;;;;;;;;;;;18.40;67.00;;;;;;4445249;32;20498;-80
2022/11/27 13:58:52;;;;;;;;;;;18.40;67.10;;;;;;4447555;32;20071;-80
2022/11/27 14:01:19;;;;;;;;;;;18.40;67.00;;;;;;4447595;32;19979;-79
2022/11/27 14:03:44;;;;;;;;;;;18.40;67.00;;;;;;4447690;32;19985;-80
2022/11/27 14:06:18;;;;;;;;;;;18.40;67.00;;;;;;4447625;32;19971;-80
2022/11/27 14:08:56;;;;;;;;;;;18.40;67.10;;;;;;4447079;32;20053;-80
2022/11/27 14:11:30;;;;;;;;;;;18.40;66.90;;;;;;4447309;32;20384;-79
2022/11/27 14:13:57;;;;;;;;;;;18.40;67.00;;;;;;4447205;32;20021;-80
2022/11/27 14:16:28;;;;;;;;;;;18.40;66.90;;;;;;4446956;32;19988;-80
2022/11/27 14:18:56;;;;;;;;;;;18.40;66.90;;;;;;4446857;32;19970;-80
2022/11/27 14:21:28;;;;;;;;;;;18.40;66.90;;;;;;4447616;32;20075;-80
2022/11/27 14:23:53;;;;;;;;;;;18.40;66.90;;;;;;4447029;32;20038;-80
2022/11/27 14:26:23;;;;;;;;;;;18.40;66.90;;;;;;4432896;32;20092;-80